createdAt,value
2023-05-01T00:00:01.506Z,0.31666666666666665
2023-05-01T00:01:01.104Z,0.2333333333333333
2023-05-01T00:02:01.023Z,0.03888888888888889
2023-05-01T00:03:01.118Z,0.19999999999999998
2023-05-01T00:04:01.309Z,0.15833333333333333
2023-05-01T00:05:02.428Z,0.23888888888888887
2023-05-01T00:06:01.014Z,0.09722222222222221
2023-05-01T00:07:01.465Z,0.225
2023-05-01T00:08:01.103Z,0.15833333333333333
2023-05-01T00:09:01.021Z,0
2023-05-01T00:10:01.640Z,0
2023-05-01T00:11:05.417Z,0
2023-05-01T00:12:01.476Z,0
2023-05-01T00:13:01.992Z,0
2023-05-01T00:14:01.266Z,0.3972222222222222
2023-05-01T00:15:01.031Z,0.23888888888888887
2023-05-01T00:16:07.863Z,0.2833333333333333
2023-05-01T00:17:00.844Z,0.35833333333333334
2023-05-01T00:18:00.583Z,0.08055555555555555
2023-05-01T00:19:00.324Z,0.25833333333333336
2023-05-01T00:20:00.034Z,0.15833333333333333
2023-05-01T00:21:10.739Z,0.08055555555555555
2023-05-01T00:22:02.522Z,0.33888888888888885
2023-05-01T00:23:01.888Z,0.23888888888888887
2023-05-01T00:24:01.398Z,0.23888888888888887
2023-05-01T00:25:01.078Z,0.15833333333333333
2023-05-01T00:26:13.879Z,0.24166666666666667
2023-05-01T00:27:01.109Z,0.2777777777777778
2023-05-01T00:28:01.745Z,0.15833333333333333
2023-05-01T00:29:01.131Z,0.11944444444444444
2023-05-01T00:30:01.558Z,0.075
2023-05-01T00:31:01.034Z,0
2023-05-01T00:32:01.177Z,0
2023-05-01T00:33:01.197Z,0
2023-05-01T00:34:01.025Z,0
2023-05-01T00:35:01.012Z,0
2023-05-01T00:36:01.029Z,0
2023-05-01T00:37:01.214Z,0
2023-05-01T00:38:01.476Z,0
2023-05-01T00:39:02.138Z,0
2023-05-01T00:40:01.064Z,0
2023-05-01T00:41:01.099Z,0
2023-05-01T00:42:01.099Z,0
2023-05-01T00:43:01.192Z,0
2023-05-01T00:44:01.716Z,0
2023-05-01T00:45:01.179Z,0
2023-05-01T00:46:01.197Z,0
2023-05-01T00:47:01.145Z,0
2023-05-01T00:48:01.632Z,0
2023-05-01T00:49:01.048Z,0
2023-05-01T00:50:01.022Z,0.08055555555555555
2023-05-01T00:51:01.031Z,0
2023-05-01T00:52:01.060Z,0
2023-05-01T00:53:01.071Z,0
2023-05-01T00:54:01.020Z,0
2023-05-01T00:55:01.078Z,0.11944444444444444
2023-05-01T00:56:01.078Z,0.11944444444444444
2023-05-01T00:57:01.422Z,0.11944444444444444
2023-05-01T00:58:01.161Z,0
2023-05-01T00:59:01.121Z,0
2023-05-01T01:00:01.115Z,0
2023-05-01T01:01:01.154Z,0
2023-05-01T01:02:01.113Z,0
2023-05-01T01:03:01.047Z,0
2023-05-01T01:04:01.076Z,0
2023-05-01T01:05:01.038Z,0
2023-05-01T01:06:01.721Z,0
2023-05-01T01:07:01.167Z,0
2023-05-01T01:08:01.066Z,0
2023-05-01T01:09:01.031Z,0
2023-05-01T01:10:01.099Z,0
2023-05-01T01:11:01.099Z,0
2023-05-01T01:12:01.555Z,0
2023-05-01T01:13:01.491Z,0
2023-05-01T01:14:01.216Z,0
2023-05-01T01:15:01.657Z,0
2023-05-01T01:16:02.736Z,0
2023-05-01T01:17:01.140Z,0
2023-05-01T01:18:01.220Z,0.23888888888888887
2023-05-01T01:19:02.464Z,0
2023-05-01T01:20:01.038Z,0
2023-05-01T01:21:01.047Z,0
2023-05-01T01:22:01.287Z,0
2023-05-01T01:23:01.026Z,0
2023-05-01T01:24:00.772Z,0
2023-05-01T01:25:01.461Z,0
2023-05-01T01:26:01.660Z,0
2023-05-01T01:27:01.108Z,0
2023-05-01T01:28:01.086Z,0
2023-05-01T01:29:01.090Z,0
2023-05-01T01:30:00.299Z,0
2023-05-01T01:30:59.845Z,0
2023-05-01T01:32:01.526Z,0
2023-05-01T01:33:01.228Z,0
2023-05-01T01:34:01.130Z,0
2023-05-01T01:35:08.385Z,0
2023-05-01T01:36:01.057Z,0
2023-05-01T01:37:01.045Z,0
2023-05-01T01:38:01.078Z,0
2023-05-01T01:39:01.014Z,0
2023-05-01T01:40:01.069Z,0
2023-05-01T01:41:01.067Z,0
2023-05-01T01:42:01.405Z,0
2023-05-01T01:43:01.112Z,0
2023-05-01T01:44:01.779Z,0
2023-05-01T01:45:01.145Z,0
2023-05-01T01:46:01.138Z,0
2023-05-01T01:47:01.119Z,0
2023-05-01T01:48:01.328Z,0
2023-05-01T01:49:01.421Z,0
2023-05-01T01:50:01.429Z,0
2023-05-01T01:51:02.178Z,0
2023-05-01T01:52:05.217Z,0
2023-05-01T01:53:01.851Z,0
2023-05-01T01:54:00.597Z,0
2023-05-01T01:55:00.255Z,0
2023-05-01T01:56:01.741Z,0
2023-05-01T01:57:08.283Z,0
2023-05-01T01:58:01.064Z,0
2023-05-01T01:59:01.071Z,0
2023-05-01T02:00:01.055Z,0
2023-05-01T02:01:01.573Z,0
2023-05-01T02:02:12.699Z,0
2023-05-01T02:03:00.903Z,0
2023-05-01T02:04:01.196Z,0
2023-05-01T02:05:01.031Z,0.31666666666666665
2023-05-01T02:06:01.522Z,0
2023-05-01T02:07:15.361Z,0
2023-05-01T02:08:01.907Z,0
2023-05-01T02:09:01.158Z,0
2023-05-01T02:10:01.164Z,0
2023-05-01T02:11:02.251Z,0
2023-05-01T02:12:17.260Z,0
2023-05-01T02:13:01.261Z,0
2023-05-01T02:14:01.370Z,0
2023-05-01T02:15:01.983Z,0
2023-05-01T02:16:01.845Z,0
2023-05-01T02:17:01.158Z,0
2023-05-01T02:18:02.399Z,0
2023-05-01T02:19:01.918Z,0
2023-05-01T02:20:02.114Z,0
2023-05-01T02:21:01.220Z,0
2023-05-01T02:22:01.121Z,0
2023-05-01T02:23:01.046Z,0
2023-05-01T02:24:01.024Z,0
2023-05-01T02:25:01.036Z,0
2023-05-01T02:26:01.053Z,0
2023-05-01T02:27:01.048Z,0.2777777777777778
2023-05-01T02:28:01.119Z,0
2023-05-01T02:29:01.395Z,0
2023-05-01T02:30:02.496Z,0
2023-05-01T02:31:02.239Z,0
2023-05-01T02:32:01.191Z,0
2023-05-01T02:33:01.113Z,0
2023-05-01T02:34:01.124Z,0
2023-05-01T02:35:01.134Z,0
2023-05-01T02:36:01.117Z,0
2023-05-01T02:37:01.930Z,0
2023-05-01T02:38:00.543Z,0
2023-05-01T02:39:00.215Z,0.019444444444444445
2023-05-01T02:39:59.897Z,0.23888888888888887
2023-05-01T02:40:59.616Z,0.15833333333333333
2023-05-01T02:42:01.729Z,0.19999999999999998
2023-05-01T02:43:02.039Z,0.11944444444444444
2023-05-01T02:44:01.405Z,0.11388888888888887
2023-05-01T02:45:01.128Z,0.03888888888888889
2023-05-01T02:46:01.179Z,0
2023-05-01T02:47:01.090Z,0.31666666666666665
2023-05-01T02:48:01.031Z,0.23888888888888887
2023-05-01T02:49:01.175Z,0
2023-05-01T02:50:01.312Z,0.2777777777777778
2023-05-01T02:51:01.109Z,0.15833333333333333
2023-05-01T02:52:01.109Z,0.2777777777777778
2023-05-01T02:53:01.485Z,0.2333333333333333
2023-05-01T02:54:02.151Z,0.19444444444444442
2023-05-01T02:55:01.059Z,0.15833333333333333
2023-05-01T02:56:01.008Z,0.15833333333333333
2023-05-01T02:57:01.018Z,0.19999999999999998
2023-05-01T02:58:01.018Z,0.11944444444444444
2023-05-01T02:59:01.039Z,0.40555555555555556
2023-05-01T03:00:01.100Z,0
2023-05-01T03:01:01.653Z,0.14444444444444446
2023-05-01T03:02:02.081Z,0.23888888888888887
2023-05-01T03:03:01.168Z,0.2777777777777778
2023-05-01T03:04:01.154Z,0.23888888888888887
2023-05-01T03:05:00.807Z,0.31666666666666665
2023-05-01T03:06:00.422Z,0.23888888888888887
2023-05-01T03:07:00.068Z,0
2023-05-01T03:07:59.606Z,0
2023-05-01T03:09:02.103Z,0.26111111111111107
2023-05-01T03:10:01.129Z,0.23888888888888887
2023-05-01T03:11:01.022Z,0.35833333333333334
2023-05-01T03:12:01.085Z,0.35833333333333334
2023-05-01T03:13:01.073Z,0.29444444444444445
2023-05-01T03:14:01.038Z,0.23888888888888887
2023-05-01T03:15:01.018Z,0.31666666666666665
2023-05-01T03:16:01.162Z,0.2777777777777778
2023-05-01T03:17:01.055Z,0.3972222222222222
2023-05-01T03:18:01.214Z,0.024999999999999998
2023-05-01T03:19:00.770Z,0
2023-05-01T03:20:01.240Z,0.08055555555555555
2023-05-01T03:21:02.918Z,0.14444444444444446
2023-05-01T03:22:01.236Z,0.19999999999999998
2023-05-01T03:23:01.138Z,0.26944444444444443
2023-05-01T03:24:01.757Z,0.2777777777777778
2023-05-01T03:25:01.765Z,0.47777777777777775
2023-05-01T03:26:01.696Z,0.4222222222222222
2023-05-01T03:27:01.353Z,0.2777777777777778
2023-05-01T03:28:03.374Z,0.22222222222222224
2023-05-01T03:29:02.300Z,0.23888888888888887
2023-05-01T03:30:01.875Z,0.31666666666666665
2023-05-01T03:31:01.902Z,0.15833333333333333
2023-05-01T03:32:01.094Z,0.19999999999999998
2023-05-01T03:33:05.756Z,0.17222222222222222
2023-05-01T03:34:01.736Z,0.23888888888888887
2023-05-01T03:35:01.511Z,0.2916666666666667
2023-05-01T03:36:01.209Z,0.19999999999999998
2023-05-01T03:37:01.089Z,0.2777777777777778
2023-05-01T03:38:08.528Z,0.06111111111111111
2023-05-01T03:39:01.061Z,0
2023-05-01T03:40:01.025Z,0
2023-05-01T03:41:01.117Z,0.2777777777777778
2023-05-01T03:42:01.129Z,0.03888888888888889
2023-05-01T03:43:11.646Z,0.18333333333333335
2023-05-01T03:44:01.019Z,0.08055555555555555
2023-05-01T03:45:01.012Z,0.15833333333333333
2023-05-01T03:46:01.047Z,0.23888888888888887
2023-05-01T03:47:00.736Z,0.15833333333333333
2023-05-01T03:48:12.883Z,0.19999999999999998
2023-05-01T03:49:01.762Z,0.11111111111111112
2023-05-01T03:50:01.036Z,0
2023-05-01T03:51:01.570Z,0.11944444444444444
2023-05-01T03:52:01.252Z,0.2777777777777778
2023-05-01T03:53:16.874Z,0.21944444444444444
2023-05-01T03:54:00.764Z,0.09999999999999999
2023-05-01T03:55:00.408Z,0.19999999999999998
2023-05-01T03:55:59.968Z,0.11944444444444444
2023-05-01T03:56:59.568Z,0.23888888888888887
2023-05-01T03:58:01.126Z,0.47777777777777775
2023-05-01T03:59:02.470Z,0.11388888888888887
2023-05-01T04:00:01.847Z,0.11111111111111112
2023-05-01T04:01:01.275Z,0.15833333333333333
2023-05-01T04:02:01.239Z,0
2023-05-01T04:03:01.908Z,0
2023-05-01T04:04:00.960Z,0
2023-05-01T04:05:01.094Z,0
2023-05-01T04:06:01.807Z,0
2023-05-01T04:07:00.983Z,0
2023-05-01T04:08:01.796Z,0
2023-05-01T04:09:01.186Z,0
2023-05-01T04:10:01.327Z,0.18611111111111112
2023-05-01T04:11:01.838Z,0.3527777777777778
2023-05-01T04:12:00.619Z,0.19999999999999998
2023-05-01T04:13:00.295Z,0.03888888888888889
2023-05-01T04:13:59.982Z,0.33888888888888885
2023-05-01T04:14:59.656Z,0
2023-05-01T04:16:01.831Z,0
2023-05-01T04:17:05.524Z,0
2023-05-01T04:18:11.753Z,0.31666666666666665
2023-05-01T04:19:16.936Z,0.2972222222222222
2023-05-01T04:20:01.542Z,0.19999999999999998
2023-05-01T04:21:01.071Z,0
2023-05-01T04:22:01.074Z,0
2023-05-01T04:23:01.599Z,0.11944444444444444
2023-05-01T04:24:03.929Z,0.17777777777777778
2023-05-01T04:25:03.615Z,0.15833333333333333
2023-05-01T04:26:04.954Z,0.33055555555555555
2023-05-01T04:27:01.113Z,0.3972222222222222
2023-05-01T04:28:01.062Z,0.2777777777777778
2023-05-01T04:29:01.027Z,0.19999999999999998
2023-05-01T04:30:01.624Z,0.23055555555555554
2023-05-01T04:31:01.322Z,0.23888888888888887
2023-05-01T04:32:01.144Z,0.31666666666666665
2023-05-01T04:33:02.200Z,0.47777777777777775
2023-05-01T04:34:01.171Z,0.4361111111111111
2023-05-01T04:35:01.320Z,0.35833333333333334
2023-05-01T04:36:01.080Z,0.2777777777777778
2023-05-01T04:37:00.703Z,0.35833333333333334
2023-05-01T04:38:00.344Z,0.31666666666666665
2023-05-01T04:39:00.116Z,0.19999999999999998
2023-05-01T04:40:00.294Z,0.19722222222222222
2023-05-01T04:41:00.108Z,0.35833333333333334
2023-05-01T04:41:59.741Z,0.2777777777777778
2023-05-01T04:43:02.830Z,0.5166666666666667
2023-05-01T04:44:01.333Z,0.47777777777777775
2023-05-01T04:45:02.238Z,0.35833333333333334
2023-05-01T04:46:01.116Z,0.47777777777777775
2023-05-01T04:47:01.188Z,0.03888888888888889
2023-05-01T04:48:01.053Z,0.2777777777777778
2023-05-01T04:49:01.008Z,0.19999999999999998
2023-05-01T04:50:00.631Z,0.31388888888888883
2023-05-01T04:51:00.493Z,0.31666666666666665
2023-05-01T04:52:00.128Z,0.19999999999999998
2023-05-01T04:52:59.828Z,0.5555555555555556
2023-05-01T04:54:01.971Z,0.75
2023-05-01T04:55:01.808Z,0.6361111111111111
2023-05-01T04:56:01.183Z,0.35833333333333334
2023-05-01T04:57:01.086Z,0.4361111111111111
2023-05-01T04:58:01.418Z,0.4361111111111111
2023-05-01T04:59:01.092Z,0.5277777777777778
2023-05-01T05:00:01.170Z,0.7138888888888888
2023-05-01T05:01:01.243Z,0.35833333333333334
2023-05-01T05:02:01.247Z,0.6361111111111111
2023-05-01T05:03:01.602Z,0.6361111111111111
2023-05-01T05:04:01.296Z,0.7138888888888888
2023-05-01T05:05:01.052Z,0.35833333333333334
2023-05-01T05:06:01.104Z,0.35833333333333334
2023-05-01T05:07:01.904Z,0.5555555555555556
2023-05-01T05:08:00.984Z,0.47777777777777775
2023-05-01T05:09:01.078Z,0.911111111111111
2023-05-01T05:10:02.625Z,0.47777777777777775
2023-05-01T05:11:01.339Z,0.23888888888888887
2023-05-01T05:12:01.871Z,0.5694444444444444
2023-05-01T05:13:01.094Z,0.5166666666666667
2023-05-01T05:14:03.644Z,0.875
2023-05-01T05:15:01.121Z,0.5972222222222222
2023-05-01T05:16:01.615Z,0.5972222222222222
2023-05-01T05:17:01.165Z,0.6361111111111111
2023-05-01T05:18:01.860Z,0.5972222222222222
2023-05-01T05:19:05.818Z,0.39444444444444443
2023-05-01T05:20:01.418Z,0.6305555555555555
2023-05-01T05:21:01.097Z,0.35833333333333334
2023-05-01T05:22:01.142Z,0.47777777777777775
2023-05-01T05:23:01.044Z,0.3972222222222222
2023-05-01T05:24:09.415Z,0.4555555555555555
2023-05-01T05:25:01.060Z,0.3972222222222222
2023-05-01T05:26:01.088Z,0.6361111111111111
2023-05-01T05:27:01.273Z,0.5555555555555556
2023-05-01T05:28:01.131Z,0.4361111111111111
2023-05-01T05:29:11.088Z,0.4805555555555555
2023-05-01T05:30:01.139Z,0.19999999999999998
2023-05-01T05:31:01.092Z,0.19999999999999998
2023-05-01T05:32:01.238Z,0.5555555555555556
2023-05-01T05:33:01.233Z,0.2777777777777778
2023-05-01T05:34:13.432Z,0.30833333333333335
2023-05-01T05:35:02.821Z,0.35833333333333334
2023-05-01T05:36:02.564Z,0.7138888888888888
2023-05-01T05:37:01.306Z,0.6361111111111111
2023-05-01T05:38:01.049Z,0.3972222222222222
2023-05-01T05:39:14.630Z,0.4555555555555555
2023-05-01T05:40:00.627Z,0.5166666666666667
2023-05-01T05:41:00.513Z,0.4361111111111111
2023-05-01T05:42:00.054Z,0.5166666666666667
2023-05-01T05:42:59.602Z,0.47777777777777775
2023-05-01T05:44:16.750Z,0.15833333333333333
2023-05-01T05:45:01.212Z,0.11944444444444444
2023-05-01T05:46:02.130Z,0.19999999999999998
2023-05-01T05:47:01.098Z,0.5166666666666667
2023-05-01T05:48:00.884Z,0.6361111111111111
2023-05-01T05:49:01.128Z,0.3972222222222222
2023-05-01T05:50:01.521Z,0.2972222222222222
2023-05-01T05:51:01.113Z,0.675
2023-05-01T05:52:01.238Z,0.3972222222222222
2023-05-01T05:53:01.067Z,0.35833333333333334
2023-05-01T05:54:01.036Z,0.2777777777777778
2023-05-01T05:55:01.109Z,0.3972222222222222
2023-05-01T05:56:01.067Z,0.19999999999999998
2023-05-01T05:57:01.054Z,0.7138888888888888
2023-05-01T05:58:01.183Z,0.31666666666666665
2023-05-01T05:59:01.101Z,0.2777777777777778
2023-05-01T06:00:01.357Z,0.675
2023-05-01T06:01:01.100Z,0.47777777777777775
2023-05-01T06:02:01.180Z,0.7944444444444444
2023-05-01T06:03:01.993Z,0.23888888888888887
2023-05-01T06:04:01.107Z,0
2023-05-01T06:05:01.057Z,0.7555555555555555
2023-05-01T06:06:01.251Z,0.23888888888888887
2023-05-01T06:07:01.366Z,0.4361111111111111
2023-05-01T06:08:01.998Z,0.2777777777777778
2023-05-01T06:09:01.235Z,0.11944444444444444
2023-05-01T06:10:01.152Z,0.17777777777777778
2023-05-01T06:11:01.078Z,0.15833333333333333
2023-05-01T06:12:01.609Z,0.23888888888888887
2023-05-01T06:13:05.290Z,0.7555555555555555
2023-05-01T06:14:01.041Z,0.15833333333333333
2023-05-01T06:15:01.104Z,0.7555555555555555
2023-05-01T06:16:01.156Z,0.7555555555555555
2023-05-01T06:17:01.062Z,0.4361111111111111
2023-05-01T06:18:01.162Z,0.5972222222222222
2023-05-01T06:19:01.530Z,0.5305555555555556
2023-05-01T06:20:01.338Z,0.23888888888888887
2023-05-01T06:21:02.544Z,0.5972222222222222
2023-05-01T06:22:01.308Z,0.15833333333333333
2023-05-01T06:23:01.146Z,0.15833333333333333
2023-05-01T06:24:01.055Z,0.4361111111111111
2023-05-01T06:25:01.411Z,0.425
2023-05-01T06:26:02.117Z,0.85
2023-05-01T06:27:01.544Z,0.19999999999999998
2023-05-01T06:28:00.851Z,0.7138888888888888
2023-05-01T06:29:00.447Z,0.9527777777777778
2023-05-01T06:30:00.045Z,0.5972222222222222
2023-05-01T06:30:59.777Z,0.875
2023-05-01T06:32:01.424Z,0.7555555555555555
2023-05-01T06:33:01.153Z,0.7944444444444444
2023-05-01T06:34:01.101Z,0.7944444444444444
2023-05-01T06:35:01.225Z,0.3972222222222222
2023-05-01T06:36:01.033Z,0.35833333333333334
2023-05-01T06:37:01.027Z,0.35833333333333334
2023-05-01T06:38:01.040Z,0.03888888888888889
2023-05-01T06:39:01.182Z,0.3972222222222222
2023-05-01T06:40:01.436Z,0.8944444444444445
2023-05-01T06:41:02.684Z,0.5555555555555556
2023-05-01T06:42:01.183Z,0.35833333333333334
2023-05-01T06:43:01.185Z,0.19999999999999998
2023-05-01T06:44:01.899Z,0.15
2023-05-01T06:45:01.060Z,0.4805555555555555
2023-05-01T06:46:01.017Z,0.7138888888888888
2023-05-01T06:47:00.688Z,0.15833333333333333
2023-05-01T06:48:01.120Z,0.19999999999999998
2023-05-01T06:49:01.538Z,0.15833333333333333
2023-05-01T06:50:03.655Z,0.5277777777777778
2023-05-01T06:51:01.776Z,0.2777777777777778
2023-05-01T06:52:01.948Z,0.2777777777777778
2023-05-01T06:53:02.062Z,0
2023-05-01T06:54:02.158Z,0.11944444444444444
2023-05-01T06:55:01.138Z,0.4305555555555556
2023-05-01T06:56:01.016Z,0.675
2023-05-01T06:57:01.050Z,0.31666666666666665
2023-05-01T06:58:04.853Z,0.3972222222222222
2023-05-01T06:59:01.054Z,0.8333333333333333
2023-05-01T07:00:00.750Z,0
2023-05-01T07:01:00.766Z,0.15833333333333333
2023-05-01T07:02:02.112Z,0.7944444444444444
2023-05-01T07:03:01.519Z,0.6972222222222222
2023-05-01T07:04:01.198Z,0.5166666666666667
2023-05-01T07:05:03.657Z,0.3194444444444444
2023-05-01T07:06:01.160Z,0.9527777777777778
2023-05-01T07:07:01.103Z,0.6361111111111111
2023-05-01T07:08:01.993Z,0.5555555555555556
2023-05-01T07:09:01.213Z,0.5972222222222222
2023-05-01T07:10:05.240Z,0.6888888888888889
2023-05-01T07:11:01.246Z,0.2777777777777778
2023-05-01T07:12:01.298Z,0.35833333333333334
2023-05-01T07:13:02.029Z,0.3277777777777778
2023-05-01T07:14:02.097Z,0.44166666666666665
2023-05-01T07:15:08.428Z,0.12222222222222222
2023-05-01T07:16:00.760Z,0.31666666666666665
2023-05-01T07:17:00.578Z,0.7138888888888888
2023-05-01T07:18:01.232Z,0.5972222222222222
2023-05-01T07:19:01.081Z,0.31666666666666665
2023-05-01T07:20:10.472Z,0
2023-05-01T07:21:01.751Z,0.27499999999999997
2023-05-01T07:22:02.091Z,0.5944444444444444
2023-05-01T07:23:02.228Z,0.6944444444444444
2023-05-01T07:24:01.096Z,0.675
2023-05-01T07:25:14.074Z,0.24722222222222223
2023-05-01T07:26:01.563Z,0.23888888888888887
2023-05-01T07:27:01.092Z,0.5166666666666667
2023-05-01T07:28:00.826Z,0.35833333333333334
2023-05-01T07:29:00.592Z,0.47777777777777775
2023-05-01T07:30:15.305Z,0.08055555555555555
2023-05-01T07:31:02.074Z,0.9
2023-05-01T07:32:02.087Z,1.0722222222222222
2023-05-01T07:33:02.571Z,0.9
2023-05-01T07:34:01.758Z,0.5166666666666667
2023-05-01T07:35:01.266Z,1.0333333333333334
2023-05-01T07:36:01.110Z,1.1111111111111112
2023-05-01T07:37:01.082Z,0.675
2023-05-01T07:38:01.372Z,0.7555555555555555
2023-05-01T07:39:01.127Z,0.11944444444444444
2023-05-01T07:40:01.111Z,0.03888888888888889
2023-05-01T07:41:01.694Z,0.37222222222222223
2023-05-01T07:42:01.059Z,0.9916666666666666
2023-05-01T07:43:01.177Z,0.35833333333333334
2023-05-01T07:44:01.441Z,0.35833333333333334
2023-05-01T07:45:01.975Z,1.2305555555555554
2023-05-01T07:46:01.218Z,0.5972222222222222
2023-05-01T07:47:01.668Z,0.2777777777777778
2023-05-01T07:48:00.922Z,1.152777777777778
2023-05-01T07:49:01.071Z,0.9944444444444445
2023-05-01T07:50:01.076Z,0.7555555555555555
2023-05-01T07:51:01.727Z,0.47777777777777775
2023-05-01T07:52:01.291Z,0.3972222222222222
2023-05-01T07:53:01.150Z,1.0722222222222222
2023-05-01T07:54:01.116Z,0.3972222222222222
2023-05-01T07:55:01.106Z,0.5166666666666667
2023-05-01T07:56:01.066Z,0.2777777777777778
2023-05-01T07:57:01.876Z,0.4361111111111111
2023-05-01T07:58:01.583Z,0.23888888888888887
2023-05-01T07:59:01.131Z,0.23888888888888887
2023-05-01T08:00:01.264Z,0.23888888888888887
2023-05-01T08:01:00.909Z,0.23888888888888887
2023-05-01T08:02:01.105Z,0.8333333333333333
2023-05-01T08:03:01.121Z,0.5166666666666667
2023-05-01T08:04:01.181Z,0.5972222222222222
2023-05-01T08:05:01.245Z,0.675
2023-05-01T08:06:01.264Z,0.7944444444444444
2023-05-01T08:07:01.536Z,0.7555555555555555
2023-05-01T08:08:01.026Z,0.6361111111111111
2023-05-01T08:09:01.466Z,0.5111111111111111
2023-05-01T08:10:02.898Z,0.8333333333333333
2023-05-01T08:11:01.101Z,0.03888888888888889
2023-05-01T08:12:01.690Z,0.15833333333333333
2023-05-01T08:13:01.120Z,0.8333333333333333
2023-05-01T08:14:01.433Z,0.9972222222222221
2023-05-01T08:15:02.093Z,0.35833333333333334
2023-05-01T08:16:03.009Z,0.36944444444444446
2023-05-01T08:17:03.779Z,0.4361111111111111
2023-05-01T08:18:01.100Z,0.23888888888888887
2023-05-01T08:19:02.057Z,0.19999999999999998
2023-05-01T08:20:01.862Z,0.15833333333333333
2023-05-01T08:21:01.073Z,0.5166666666666667
2023-05-01T08:22:01.156Z,0.6361111111111111
2023-05-01T08:23:01.420Z,0.2777777777777778
2023-05-01T08:24:01.472Z,0.3333333333333333
2023-05-01T08:25:02.099Z,0.31666666666666665
2023-05-01T08:26:01.109Z,0.775
2023-05-01T08:27:01.084Z,0.31666666666666665
2023-05-01T08:28:00.791Z,0.35833333333333334
2023-05-01T08:29:01.017Z,0.35833333333333334
2023-05-01T08:30:01.117Z,0.5166666666666667
2023-05-01T08:31:01.220Z,0.25833333333333336
2023-05-01T08:32:01.618Z,0.3055555555555556
2023-05-01T08:33:01.358Z,0.9138888888888889
2023-05-01T08:34:01.048Z,0.5972222222222222
2023-05-01T08:35:01.052Z,0.03888888888888889
2023-05-01T08:36:01.056Z,0.3194444444444444
2023-05-01T08:37:01.060Z,0.11944444444444444
2023-05-01T08:38:01.024Z,0.3972222222222222
2023-05-01T08:39:01.089Z,0.47777777777777775
2023-05-01T08:40:01.082Z,0.5166666666666667
2023-05-01T08:41:01.781Z,0.8055555555555555
2023-05-01T08:42:02.391Z,0.23888888888888887
2023-05-01T08:43:01.787Z,0.5972222222222222
2023-05-01T08:44:03.051Z,0.45
2023-05-01T08:45:01.606Z,0.6361111111111111
2023-05-01T08:46:01.783Z,0.5916666666666667
2023-05-01T08:47:01.991Z,0.7944444444444444
2023-05-01T08:48:01.500Z,1.2305555555555554
2023-05-01T08:49:01.718Z,1.3111111111111111
2023-05-01T08:50:01.746Z,0.5
2023-05-01T08:51:02.906Z,0.08611111111111111
2023-05-01T08:52:01.066Z,0.2777777777777778
2023-05-01T08:53:01.067Z,0.2777777777777778
2023-05-01T08:54:01.097Z,0.7555555555555555
2023-05-01T08:55:01.095Z,1.3111111111111111
2023-05-01T08:56:05.315Z,0.5666666666666667
2023-05-01T08:57:01.072Z,0.08055555555555555
2023-05-01T08:58:01.176Z,0.15833333333333333
2023-05-01T08:59:01.501Z,0.34444444444444444
2023-05-01T09:00:01.700Z,0.07777777777777778
2023-05-01T09:01:07.863Z,0.5527777777777778
2023-05-01T09:02:01.313Z,0.5972222222222222
2023-05-01T09:03:01.270Z,0.5972222222222222
2023-05-01T09:04:02.114Z,1.3111111111111111
2023-05-01T09:05:01.466Z,0.7944444444444444
2023-05-01T09:06:12.181Z,0.37777777777777777
2023-05-01T09:07:01.015Z,0.03888888888888889
2023-05-01T09:08:01.052Z,0.23888888888888887
2023-05-01T09:09:01.060Z,0.15833333333333333
2023-05-01T09:10:01.025Z,0
2023-05-01T09:11:15.779Z,0.6277777777777777
2023-05-01T09:12:01.835Z,0.23888888888888887
2023-05-01T09:13:02.517Z,0.47777777777777775
2023-05-01T09:14:01.913Z,0.15833333333333333
2023-05-01T09:15:02.235Z,0.9527777777777778
2023-05-01T09:16:17.078Z,0.14722222222222223
2023-05-01T09:17:01.922Z,0.19999999999999998
2023-05-01T09:18:03.621Z,0.9944444444444445
2023-05-01T09:19:01.028Z,0.9138888888888889
2023-05-01T09:20:01.125Z,0.2777777777777778
2023-05-01T09:21:01.069Z,1.0333333333333334
2023-05-01T09:22:01.066Z,0.5972222222222222
2023-05-01T09:23:01.864Z,0.3972222222222222
2023-05-01T09:24:01.078Z,0.6361111111111111
2023-05-01T09:25:01.038Z,0.5166666666666667
2023-05-01T09:26:01.335Z,0.35833333333333334
2023-05-01T09:27:01.447Z,0.23055555555555554
2023-05-01T09:28:01.032Z,0.35833333333333334
2023-05-01T09:29:01.027Z,0.23888888888888887
2023-05-01T09:30:01.005Z,0.47777777777777775
2023-05-01T09:31:01.033Z,0.15833333333333333
2023-05-01T09:32:01.260Z,0.7944444444444444
2023-05-01T09:33:01.549Z,1.0305555555555554
2023-05-01T09:34:01.137Z,0.5972222222222222
2023-05-01T09:35:01.153Z,0.47777777777777775
2023-05-01T09:36:01.129Z,0.23888888888888887
2023-05-01T09:37:03.870Z,0.18611111111111112
2023-05-01T09:38:01.174Z,0.3972222222222222
2023-05-01T09:39:00.521Z,0.5166666666666667
2023-05-01T09:40:00.249Z,1.3111111111111111
2023-05-01T09:40:59.909Z,1.2305555555555554
2023-05-01T09:41:59.529Z,0.7555555555555555
2023-05-01T09:43:01.390Z,0.08055555555555555
2023-05-01T09:44:01.078Z,0.31666666666666665
2023-05-01T09:45:01.083Z,0.23888888888888887
2023-05-01T09:46:01.118Z,0.47777777777777775
2023-05-01T09:47:01.092Z,0.15833333333333333
2023-05-01T09:48:01.293Z,0.23888888888888887
2023-05-01T09:49:01.016Z,0.35833333333333334
2023-05-01T09:50:01.118Z,0.31666666666666665
2023-05-01T09:51:01.136Z,0.19999999999999998
2023-05-01T09:52:01.165Z,0.47777777777777775
2023-05-01T09:53:01.135Z,0.08055555555555555
2023-05-01T09:54:01.048Z,1.0722222222222222
2023-05-01T09:55:01.036Z,0.3972222222222222
2023-05-01T09:56:01.043Z,0.31666666666666665
2023-05-01T09:57:01.057Z,0.19999999999999998
2023-05-01T09:58:01.037Z,0.11944444444444444
2023-05-01T09:59:01.051Z,0.875
2023-05-01T10:00:02.413Z,0.6583333333333333
2023-05-01T10:01:01.798Z,0.9527777777777778
2023-05-01T10:02:01.154Z,1.0722222222222222
2023-05-01T10:03:01.168Z,1.0333333333333334
2023-05-01T10:04:01.217Z,0.4361111111111111